sensor_id;sensor_type;location;lat;lon;timestamp;temperature;humidity
10472;DHT22;5283;48.876;8.962;2023-01-16T00:01:52;2.10;99.90
10472;DHT22;5283;48.876;8.962;2023-01-16T00:04:19;2.10;99.90
10472;DHT22;5283;48.876;8.962;2023-01-16T00:06:46;2.00;99.90
10472;DHT22;5283;48.876;8.962;2023-01-16T00:09:13;1.90;99.90
10472;DHT22;5283;48.876;8.962;2023-01-16T00:11:39;1.80;99.90
10472;DHT22;5283;48.876;8.962;2023-01-16T00:14:06;1.80;99.90
10472;DHT22;5283;48.876;8.962;2023-01-16T00:16:32;1.90;99.90
10472;DHT22;5283;48.876;8.962;2023-01-16T00:18:59;2.00;99.90
10472;DHT22;5283;48.876;8.962;2023-01-16T00:21:26;2.10;99.90
10472;DHT22;5283;48.876;8.962;2023-01-16T00:23:54;2.10;99.90
10472;DHT22;5283;48.876;8.962;2023-01-16T00:26:21;2.20;99.90
10472;DHT22;5283;48.876;8.962;2023-01-16T00:28:48;2.20;99.90
10472;DHT22;5283;48.876;8.962;2023-01-16T00:31:15;2.20;99.90
10472;DHT22;5283;48.876;8.962;2023-01-16T00:33:42;2.30;99.90
10472;DHT22;5283;48.876;8.962;2023-01-16T00:36:10;2.30;99.90
10472;DHT22;5283;48.876;8.962;2023-01-16T00:38:37;2.20;99.90
10472;DHT22;5283;48.876;8.962;2023-01-16T00:41:04;2.20;99.90
10472;DHT22;5283;48.876;8.962;2023-01-16T00:43:31;2.00;99.90
10472;DHT22;5283;48.876;8.962;2023-01-16T00:45:58;1.90;99.90
10472;DHT22;5283;48.876;8.962;2023-01-16T00:48:25;1.70;99.90
10472;DHT22;5283;48.876;8.962;2023-01-16T00:50:51;1.70;99.90
10472;DHT22;5283;48.876;8.962;2023-01-16T00:53:18;1.70;99.90
10472;DHT22;5283;48.876;8.962;2023-01-16T00:55:45;1.70;99.90
10472;DHT22;5283;48.876;8.962;2023-01-16T00:58:11;1.80;99.90
10472;DHT22;5283;48.876;8.962;2023-01-16T01:00:38;1.70;99.90
10472;DHT22;5283;48.876;8.962;2023-01-16T01:03:05;1.70;99.90
10472;DHT22;5283;48.876;8.962;2023-01-16T01:05:36;1.50;99.90
10472;DHT22;5283;48.876;8.962;2023-01-16T01:08:04;1.50;99.90
10472;DHT22;5283;48.876;8.962;2023-01-16T01:10:31;1.40;99.90
10472;DHT22;5283;48.876;8.962;2023-01-16T01:12:58;1.30;99.90
10472;DHT22;5283;48.876;8.962;2023-01-16T01:15:24;1.20;99.90
10472;DHT22;5283;48.876;8.962;2023-01-16T01:17:51;1.10;99.90
10472;DHT22;5283;48.876;8.962;2023-01-16T01:20:18;1.10;99.90
10472;DHT22;5283;48.876;8.962;2023-01-16T01:22:45;1.20;99.90
10472;DHT22;5283;48.876;8.962;2023-01-16T01:25:12;1.10;99.90
10472;DHT22;5283;48.876;8.962;2023-01-16T01:27:39;1.00;99.90
10472;DHT22;5283;48.876;8.962;2023-01-16T01:30:07;0.90;99.90
10472;DHT22;5283;48.876;8.962;2023-01-16T01:32:33;0.80;99.90
10472;DHT22;5283;48.876;8.962;2023-01-16T01:35:07;0.80;99.90
10472;DHT22;5283;48.876;8.962;2023-01-16T01:37:34;0.70;99.90
10472;DHT22;5283;48.876;8.962;2023-01-16T01:40:02;0.70;99.90
10472;DHT22;5283;48.876;8.962;2023-01-16T01:42:36;0.70;99.90
10472;DHT22;5283;48.876;8.962;2023-01-16T01:45:26;0.70;99.90
10472;DHT22;5283;48.876;8.962;2023-01-16T01:47:57;0.80;99.90
10472;DHT22;5283;48.876;8.962;2023-01-16T01:50:50;0.90;99.90
10472;DHT22;5283;48.876;8.962;2023-01-16T01:53:39;0.90;99.90
10472;DHT22;5283;48.876;8.962;2023-01-16T01:56:20;1.10;99.90
10472;DHT22;5283;48.876;8.962;2023-01-16T01:58:52;1.00;99.90
10472;DHT22;5283;48.876;8.962;2023-01-16T02:01:21;1.00;99.90
10472;DHT22;5283;48.876;8.962;2023-01-16T02:03:56;1.00;99.90
10472;DHT22;5283;48.876;8.962;2023-01-16T02:06:30;1.00;99.90
10472;DHT22;5283;48.876;8.962;2023-01-16T02:08:58;1.10;99.90
10472;DHT22;5283;48.876;8.962;2023-01-16T02:11:40;1.10;99.90
10472;DHT22;5283;48.876;8.962;2023-01-16T02:14:12;1.10;99.90
10472;DHT22;5283;48.876;8.962;2023-01-16T02:16:39;1.10;99.90
10472;DHT22;5283;48.876;8.962;2023-01-16T02:25:27;1.00;99.90
10472;DHT22;5283;48.876;8.962;2023-01-16T02:28:23;1.00;99.90
10472;DHT22;5283;48.876;8.962;2023-01-16T02:33:53;1.00;99.90
10472;DHT22;5283;48.876;8.962;2023-01-16T02:42:08;1.00;99.90
10472;DHT22;5283;48.876;8.962;2023-01-16T02:44:43;0.90;99.90
10472;DHT22;5283;48.876;8.962;2023-01-16T02:55:56;1.00;99.90
10472;DHT22;5283;48.876;8.962;2023-01-16T02:58:24;1.00;99.90
10472;DHT22;5283;48.876;8.962;2023-01-16T03:00:56;1.20;99.90
10472;DHT22;5283;48.876;8.962;2023-01-16T03:03:50;1.30;99.90
10472;DHT22;5283;48.876;8.962;2023-01-16T03:06:24;1.50;99.90
10472;DHT22;5283;48.876;8.962;2023-01-16T03:11:37;1.80;99.90
10472;DHT22;5283;48.876;8.962;2023-01-16T03:14:16;1.80;99.90
10472;DHT22;5283;48.876;8.962;2023-01-16T03:16:58;1.80;99.90
10472;DHT22;5283;48.876;8.962;2023-01-16T03:19:55;2.00;99.90
10472;DHT22;5283;48.876;8.962;2023-01-16T03:22:44;2.20;99.90
10472;DHT22;5283;48.876;8.962;2023-01-16T03:27:55;2.30;99.90
10472;DHT22;5283;48.876;8.962;2023-01-16T03:33:10;2.30;99.90
10472;DHT22;5283;48.876;8.962;2023-01-16T03:35:46;2.30;99.90
10472;DHT22;5283;48.876;8.962;2023-01-16T03:38:17;2.20;99.90
10472;DHT22;5283;48.876;8.962;2023-01-16T03:40:46;2.10;99.90
10472;DHT22;5283;48.876;8.962;2023-01-16T03:43:20;2.10;99.90
10472;DHT22;5283;48.876;8.962;2023-01-16T03:51:13;2.00;99.90
10472;DHT22;5283;48.876;8.962;2023-01-16T03:53:51;1.90;99.90
10472;DHT22;5283;48.876;8.962;2023-01-16T03:56:24;2.00;99.90
10472;DHT22;5283;48.876;8.962;2023-01-16T03:58:54;1.90;99.90
10472;DHT22;5283;48.876;8.962;2023-01-16T04:04:38;1.80;99.90
10472;DHT22;5283;48.876;8.962;2023-01-16T04:07:29;1.80;99.90
10472;DHT22;5283;48.876;8.962;2023-01-16T04:09:58;1.70;99.90
10472;DHT22;5283;48.876;8.962;2023-01-16T04:12:30;1.60;99.90
10472;DHT22;5283;48.876;8.962;2023-01-16T04:15:01;1.60;99.90
10472;DHT22;5283;48.876;8.962;2023-01-16T04:17:29;1.50;99.90
10472;DHT22;5283;48.876;8.962;2023-01-16T04:19:56;1.40;99.90
10472;DHT22;5283;48.876;8.962;2023-01-16T04:22:26;1.30;99.90
10472;DHT22;5283;48.876;8.962;2023-01-16T04:24:55;1.40;99.90
10472;DHT22;5283;48.876;8.962;2023-01-16T04:27:23;1.50;99.90
10472;DHT22;5283;48.876;8.962;2023-01-16T04:29:49;1.40;99.90
10472;DHT22;5283;48.876;8.962;2023-01-16T04:32:16;1.40;99.90
10472;DHT22;5283;48.876;8.962;2023-01-16T04:34:43;1.50;99.90
10472;DHT22;5283;48.876;8.962;2023-01-16T04:37:14;1.60;99.90
10472;DHT22;5283;48.876;8.962;2023-01-16T04:39:41;1.60;99.90
10472;DHT22;5283;48.876;8.962;2023-01-16T04:42:09;1.40;99.90
10472;DHT22;5283;48.876;8.962;2023-01-16T04:44:36;1.40;99.90
10472;DHT22;5283;48.876;8.962;2023-01-16T04:47:03;1.10;99.90
10472;DHT22;5283;48.876;8.962;2023-01-16T04:49:30;1.00;99.90
10472;DHT22;5283;48.876;8.962;2023-01-16T04:51:56;0.80;99.90
10472;DHT22;5283;48.876;8.962;2023-01-16T04:54:24;0.70;99.90
10472;DHT22;5283;48.876;8.962;2023-01-16T04:56:50;0.50;99.90
10472;DHT22;5283;48.876;8.962;2023-01-16T04:59:17;0.50;99.90
10472;DHT22;5283;48.876;8.962;2023-01-16T05:01:44;0.50;99.90
10472;DHT22;5283;48.876;8.962;2023-01-16T05:04:13;0.50;99.90
10472;DHT22;5283;48.876;8.962;2023-01-16T05:06:40;0.60;99.90
10472;DHT22;5283;48.876;8.962;2023-01-16T05:09:07;0.60;99.90
10472;DHT22;5283;48.876;8.962;2023-01-16T05:11:34;0.70;99.90
10472;DHT22;5283;48.876;8.962;2023-01-16T05:14:01;0.70;99.90
10472;DHT22;5283;48.876;8.962;2023-01-16T05:16:28;0.80;99.90
10472;DHT22;5283;48.876;8.962;2023-01-16T05:18:54;0.80;99.90
10472;DHT22;5283;48.876;8.962;2023-01-16T05:21:21;0.70;99.90
10472;DHT22;5283;48.876;8.962;2023-01-16T05:23:48;0.80;99.90
10472;DHT22;5283;48.876;8.962;2023-01-16T05:26:14;0.90;99.90
10472;DHT22;5283;48.876;8.962;2023-01-16T05:28:41;1.00;99.90
10472;DHT22;5283;48.876;8.962;2023-01-16T05:31:08;1.00;99.90
10472;DHT22;5283;48.876;8.962;2023-01-16T05:33:34;1.00;99.90
10472;DHT22;5283;48.876;8.962;2023-01-16T05:36:01;1.00;99.90
10472;DHT22;5283;48.876;8.962;2023-01-16T05:38:28;1.00;99.90
10472;DHT22;5283;48.876;8.962;2023-01-16T05:40:55;0.80;99.90
10472;DHT22;5283;48.876;8.962;2023-01-16T05:43:23;0.70;99.90
10472;DHT22;5283;48.876;8.962;2023-01-16T05:45:50;0.60;99.90
10472;DHT22;5283;48.876;8.962;2023-01-16T05:48:17;0.60;99.90
10472;DHT22;5283;48.876;8.962;2023-01-16T05:50:43;0.60;99.90
10472;DHT22;5283;48.876;8.962;2023-01-16T05:53:10;0.80;99.90
10472;DHT22;5283;48.876;8.962;2023-01-16T05:55:46;0.90;99.90
10472;DHT22;5283;48.876;8.962;2023-01-16T05:58:15;1.10;99.90
10472;DHT22;5283;48.876;8.962;2023-01-16T06:00:42;1.10;99.90
10472;DHT22;5283;48.876;8.962;2023-01-16T06:03:09;1.10;99.90
10472;DHT22;5283;48.876;8.962;2023-01-16T06:05:36;1.20;99.90
10472;DHT22;5283;48.876;8.962;2023-01-16T06:08:03;1.20;99.90
10472;DHT22;5283;48.876;8.962;2023-01-16T06:10:31;1.50;99.90
10472;DHT22;5283;48.876;8.962;2023-01-16T06:12:57;1.50;99.90
10472;DHT22;5283;48.876;8.962;2023-01-16T06:15:24;1.60;99.90
10472;DHT22;5283;48.876;8.962;2023-01-16T06:17:50;1.70;99.90
10472;DHT22;5283;48.876;8.962;2023-01-16T06:20:20;1.70;99.90
10472;DHT22;5283;48.876;8.962;2023-01-16T06:22:47;1.80;99.90
10472;DHT22;5283;48.876;8.962;2023-01-16T06:25:13;1.80;99.90
10472;DHT22;5283;48.876;8.962;2023-01-16T06:27:40;1.90;99.90
10472;DHT22;5283;48.876;8.962;2023-01-16T06:30:07;1.90;99.90
10472;DHT22;5283;48.876;8.962;2023-01-16T06:32:34;2.00;99.90
10472;DHT22;5283;48.876;8.962;2023-01-16T06:35:01;1.90;99.90
10472;DHT22;5283;48.876;8.962;2023-01-16T06:37:27;2.10;99.90
10472;DHT22;5283;48.876;8.962;2023-01-16T06:39:54;2.20;99.90
10472;DHT22;5283;48.876;8.962;2023-01-16T06:42:23;2.20;99.90
10472;DHT22;5283;48.876;8.962;2023-01-16T06:44:49;2.20;99.90
10472;DHT22;5283;48.876;8.962;2023-01-16T06:47:16;2.20;99.90
10472;DHT22;5283;48.876;8.962;2023-01-16T06:49:43;2.20;99.90
10472;DHT22;5283;48.876;8.962;2023-01-16T06:52:09;2.30;99.90
10472;DHT22;5283;48.876;8.962;2023-01-16T06:54:36;2.20;99.90
10472;DHT22;5283;48.876;8.962;2023-01-16T06:57:03;2.30;99.90
10472;DHT22;5283;48.876;8.962;2023-01-16T06:59:29;2.30;99.90
10472;DHT22;5283;48.876;8.962;2023-01-16T07:01:56;2.20;99.90
10472;DHT22;5283;48.876;8.962;2023-01-16T07:04:23;2.20;99.90
10472;DHT22;5283;48.876;8.962;2023-01-16T07:06:50;2.00;99.90
10472;DHT22;5283;48.876;8.962;2023-01-16T07:09:17;1.90;99.90
10472;DHT22;5283;48.876;8.962;2023-01-16T07:11:44;2.00;99.90
10472;DHT22;5283;48.876;8.962;2023-01-16T07:14:10;2.00;99.90
10472;DHT22;5283;48.876;8.962;2023-01-16T07:16:56;2.00;99.90
10472;DHT22;5283;48.876;8.962;2023-01-16T07:19:41;1.90;99.90
10472;DHT22;5283;48.876;8.962;2023-01-16T07:22:26;1.80;99.90
10472;DHT22;5283;48.876;8.962;2023-01-16T07:25:21;1.80;99.90
10472;DHT22;5283;48.876;8.962;2023-01-16T07:27:49;1.80;99.90
10472;DHT22;5283;48.876;8.962;2023-01-16T07:30:17;1.70;99.90
10472;DHT22;5283;48.876;8.962;2023-01-16T07:32:45;1.80;99.90
10472;DHT22;5283;48.876;8.962;2023-01-16T07:35:13;1.90;99.90
10472;DHT22;5283;48.876;8.962;2023-01-16T07:37:40;1.90;99.90
10472;DHT22;5283;48.876;8.962;2023-01-16T07:40:07;2.00;99.90
10472;DHT22;5283;48.876;8.962;2023-01-16T07:42:34;2.00;99.90
10472;DHT22;5283;48.876;8.962;2023-01-16T07:45:00;2.00;99.90
10472;DHT22;5283;48.876;8.962;2023-01-16T07:47:27;2.00;99.90
10472;DHT22;5283;48.876;8.962;2023-01-16T07:49:54;2.10;99.90
10472;DHT22;5283;48.876;8.962;2023-01-16T07:52:20;2.10;99.90
10472;DHT22;5283;48.876;8.962;2023-01-16T07:54:47;2.10;99.90
10472;DHT22;5283;48.876;8.962;2023-01-16T07:57:14;2.20;99.90
10472;DHT22;5283;48.876;8.962;2023-01-16T07:59:41;2.40;99.90
10472;DHT22;5283;48.876;8.962;2023-01-16T08:02:09;2.40;99.90
10472;DHT22;5283;48.876;8.962;2023-01-16T08:04:36;2.50;99.90
10472;DHT22;5283;48.876;8.962;2023-01-16T08:07:03;2.50;99.90
10472;DHT22;5283;48.876;8.962;2023-01-16T08:09:29;2.50;99.90
10472;DHT22;5283;48.876;8.962;2023-01-16T08:11:56;2.60;99.90
10472;DHT22;5283;48.876;8.962;2023-01-16T08:14:23;2.60;99.90
10472;DHT22;5283;48.876;8.962;2023-01-16T08:16:49;2.70;99.90
10472;DHT22;5283;48.876;8.962;2023-01-16T08:19:16;2.70;99.90
10472;DHT22;5283;48.876;8.962;2023-01-16T08:21:43;2.80;99.90
10472;DHT22;5283;48.876;8.962;2023-01-16T08:24:10;2.70;99.90
10472;DHT22;5283;48.876;8.962;2023-01-16T08:26:39;2.80;99.90
10472;DHT22;5283;48.876;8.962;2023-01-16T08:29:06;2.80;99.90
10472;DHT22;5283;48.876;8.962;2023-01-16T08:31:33;2.90;99.90
10472;DHT22;5283;48.876;8.962;2023-01-16T08:34:00;2.90;99.90
10472;DHT22;5283;48.876;8.962;2023-01-16T08:36:26;3.00;99.90
10472;DHT22;5283;48.876;8.962;2023-01-16T08:38:53;3.00;99.90
10472;DHT22;5283;48.876;8.962;2023-01-16T08:41:20;3.00;99.90
10472;DHT22;5283;48.876;8.962;2023-01-16T08:44:05;3.00;99.90
10472;DHT22;5283;48.876;8.962;2023-01-16T08:47:08;3.00;99.90
10472;DHT22;5283;48.876;8.962;2023-01-16T08:49:55;3.00;99.90
10472;DHT22;5283;48.876;8.962;2023-01-16T08:52:40;3.00;99.90
10472;DHT22;5283;48.876;8.962;2023-01-16T08:55:08;3.00;99.90
10472;DHT22;5283;48.876;8.962;2023-01-16T08:57:35;3.10;99.90
10472;DHT22;5283;48.876;8.962;2023-01-16T09:00:03;3.10;99.90
10472;DHT22;5283;48.876;8.962;2023-01-16T09:02:30;3.00;99.90
10472;DHT22;5283;48.876;8.962;2023-01-16T09:05:00;3.00;99.90
10472;DHT22;5283;48.876;8.962;2023-01-16T09:07:27;3.00;99.90
10472;DHT22;5283;48.876;8.962;2023-01-16T09:09:55;3.00;99.90
10472;DHT22;5283;48.876;8.962;2023-01-16T09:12:22;3.10;99.90
10472;DHT22;5283;48.876;8.962;2023-01-16T09:15:09;3.20;99.90
10472;DHT22;5283;48.876;8.962;2023-01-16T09:17:36;3.20;99.90
10472;DHT22;5283;48.876;8.962;2023-01-16T09:20:02;3.30;99.90
10472;DHT22;5283;48.876;8.962;2023-01-16T09:22:29;3.30;99.90
10472;DHT22;5283;48.876;8.962;2023-01-16T09:24:56;3.30;99.90
10472;DHT22;5283;48.876;8.962;2023-01-16T09:27:22;3.40;99.90
10472;DHT22;5283;48.876;8.962;2023-01-16T09:29:51;3.40;99.90
10472;DHT22;5283;48.876;8.962;2023-01-16T09:32:18;3.40;99.90
10472;DHT22;5283;48.876;8.962;2023-01-16T09:34:45;3.50;99.90
10472;DHT22;5283;48.876;8.962;2023-01-16T09:37:12;3.60;99.90
10472;DHT22;5283;48.876;8.962;2023-01-16T09:39:38;3.60;99.90
10472;DHT22;5283;48.876;8.962;2023-01-16T09:45:06;3.80;99.90
10472;DHT22;5283;48.876;8.962;2023-01-16T09:47:34;3.90;99.90
10472;DHT22;5283;48.876;8.962;2023-01-16T09:53:04;4.10;99.90
10472;DHT22;5283;48.876;8.962;2023-01-16T09:55:51;4.10;99.90
10472;DHT22;5283;48.876;8.962;2023-01-16T09:58:40;4.10;99.90
10472;DHT22;5283;48.876;8.962;2023-01-16T10:01:15;4.20;99.90
10472;DHT22;5283;48.876;8.962;2023-01-16T10:03:42;4.30;99.90
10472;DHT22;5283;48.876;8.962;2023-01-16T10:06:30;4.30;99.90
10472;DHT22;5283;48.876;8.962;2023-01-16T10:09:16;4.40;99.90
10472;DHT22;5283;48.876;8.962;2023-01-16T10:11:52;4.50;99.90
10472;DHT22;5283;48.876;8.962;2023-01-16T10:17:14;4.50;99.90
10472;DHT22;5283;48.876;8.962;2023-01-16T10:25:15;4.70;99.90
10472;DHT22;5283;48.876;8.962;2023-01-16T10:30:51;4.80;99.90
10472;DHT22;5283;48.876;8.962;2023-01-16T10:36:20;4.90;99.90
10472;DHT22;5283;48.876;8.962;2023-01-16T10:38:50;4.90;99.90
10472;DHT22;5283;48.876;8.962;2023-01-16T10:41:33;5.00;99.90
10472;DHT22;5283;48.876;8.962;2023-01-16T10:47:23;5.10;99.90
10472;DHT22;5283;48.876;8.962;2023-01-16T10:50:10;5.00;99.90
10472;DHT22;5283;48.876;8.962;2023-01-16T10:52:37;5.00;99.90
10472;DHT22;5283;48.876;8.962;2023-01-16T10:55:05;5.00;99.90
10472;DHT22;5283;48.876;8.962;2023-01-16T10:57:33;5.00;99.90
10472;DHT22;5283;48.876;8.962;2023-01-16T11:00:12;5.00;99.90
10472;DHT22;5283;48.876;8.962;2023-01-16T11:02:43;5.10;99.90
10472;DHT22;5283;48.876;8.962;2023-01-16T11:07:48;5.20;99.90
10472;DHT22;5283;48.876;8.962;2023-01-16T11:10:18;5.20;99.90
10472;DHT22;5283;48.876;8.962;2023-01-16T11:12:45;5.30;99.90
10472;DHT22;5283;48.876;8.962;2023-01-16T11:15:30;5.30;99.90
10472;DHT22;5283;48.876;8.962;2023-01-16T11:18:26;5.40;99.90
10472;DHT22;5283;48.876;8.962;2023-01-16T11:21:16;5.50;99.90
10472;DHT22;5283;48.876;8.962;2023-01-16T11:23:47;5.50;99.90
10472;DHT22;5283;48.876;8.962;2023-01-16T11:26:14;5.60;99.90
10472;DHT22;5283;48.876;8.962;2023-01-16T11:28:46;5.60;99.90
10472;DHT22;5283;48.876;8.962;2023-01-16T11:31:19;5.60;99.90
10472;DHT22;5283;48.876;8.962;2023-01-16T11:33:49;5.60;99.90
10472;DHT22;5283;48.876;8.962;2023-01-16T11:36:21;5.70;99.90
10472;DHT22;5283;48.876;8.962;2023-01-16T11:38:49;5.70;99.90
10472;DHT22;5283;48.876;8.962;2023-01-16T11:41:19;5.60;99.90
10472;DHT22;5283;48.876;8.962;2023-01-16T11:44:05;5.70;99.90
10472;DHT22;5283;48.876;8.962;2023-01-16T11:46:57;5.70;99.90
10472;DHT22;5283;48.876;8.962;2023-01-16T11:49:27;5.70;99.90
10472;DHT22;5283;48.876;8.962;2023-01-16T11:51:58;5.80;99.90
10472;DHT22;5283;48.876;8.962;2023-01-16T11:54:32;5.90;99.90
10472;DHT22;5283;48.876;8.962;2023-01-16T12:13:14;6.40;99.90
10472;DHT22;5283;48.876;8.962;2023-01-16T12:16:16;6.30;99.90
10472;DHT22;5283;48.876;8.962;2023-01-16T12:25:23;6.60;99.90
10472;DHT22;5283;48.876;8.962;2023-01-16T12:33:34;6.50;99.90
10472;DHT22;5283;48.876;8.962;2023-01-16T12:36:27;6.60;99.90
10472;DHT22;5283;48.876;8.962;2023-01-16T12:39:22;6.60;99.90
10472;DHT22;5283;48.876;8.962;2023-01-16T12:45:40;6.60;99.90
10472;DHT22;5283;48.876;8.962;2023-01-16T12:53:39;6.70;99.90
10472;DHT22;5283;48.876;8.962;2023-01-16T12:58:55;6.70;99.90
10472;DHT22;5283;48.876;8.962;2023-01-16T13:01:25;6.50;99.90
10472;DHT22;5283;48.876;8.962;2023-01-16T13:03:59;6.50;99.90
10472;DHT22;5283;48.876;8.962;2023-01-16T13:09:15;6.60;99.90
10472;DHT22;5283;48.876;8.962;2023-01-16T13:12:01;6.60;99.90
10472;DHT22;5283;48.876;8.962;2023-01-16T13:14:52;6.50;99.90
10472;DHT22;5283;48.876;8.962;2023-01-16T13:17:24;6.50;99.90
10472;DHT22;5283;48.876;8.962;2023-01-16T13:19:59;6.60;99.90
10472;DHT22;5283;48.876;8.962;2023-01-16T13:22:38;6.70;99.90
10472;DHT22;5283;48.876;8.962;2023-01-16T13:25:29;6.60;99.90
10472;DHT22;5283;48.876;8.962;2023-01-16T13:30:43;6.80;99.90
10472;DHT22;5283;48.876;8.962;2023-01-16T13:33:14;6.90;99.90
10472;DHT22;5283;48.876;8.962;2023-01-16T13:35:58;7.00;99.90
10472;DHT22;5283;48.876;8.962;2023-01-16T13:38:50;7.10;99.90
10472;DHT22;5283;48.876;8.962;2023-01-16T13:41:35;7.10;99.90
10472;DHT22;5283;48.876;8.962;2023-01-16T13:44:15;7.10;99.90
10472;DHT22;5283;48.876;8.962;2023-01-16T13:47:16;7.00;99.90
10472;DHT22;5283;48.876;8.962;2023-01-16T13:49:52;7.00;99.90
10472;DHT22;5283;48.876;8.962;2023-01-16T13:52:22;7.00;99.90
10472;DHT22;5283;48.876;8.962;2023-01-16T13:54:54;7.00;99.90
10472;DHT22;5283;48.876;8.962;2023-01-16T13:57:23;7.00;99.90
10472;DHT22;5283;48.876;8.962;2023-01-16T13:59:56;7.00;99.90
10472;DHT22;5283;48.876;8.962;2023-01-16T14:02:42;6.90;99.90
10472;DHT22;5283;48.876;8.962;2023-01-16T14:05:24;6.80;99.90
10472;DHT22;5283;48.876;8.962;2023-01-16T14:10:46;6.80;99.90
10472;DHT22;5283;48.876;8.962;2023-01-16T14:16:01;6.60;99.90
10472;DHT22;5283;48.876;8.962;2023-01-16T14:19:21;6.50;99.90
10472;DHT22;5283;48.876;8.962;2023-01-16T14:21:49;6.30;99.90
10472;DHT22;5283;48.876;8.962;2023-01-16T14:24:53;6.30;99.90
10472;DHT22;5283;48.876;8.962;2023-01-16T14:27:33;6.30;99.90
10472;DHT22;5283;48.876;8.962;2023-01-16T14:30:03;6.20;99.90
10472;DHT22;5283;48.876;8.962;2023-01-16T14:32:32;5.90;99.90
10472;DHT22;5283;48.876;8.962;2023-01-16T14:35:23;5.90;99.90
10472;DHT22;5283;48.876;8.962;2023-01-16T14:38:04;5.90;99.90
10472;DHT22;5283;48.876;8.962;2023-01-16T14:40:36;5.90;99.90
10472;DHT22;5283;48.876;8.962;2023-01-16T14:43:31;5.90;99.90
10472;DHT22;5283;48.876;8.962;2023-01-16T14:49:41;5.60;99.90
10472;DHT22;5283;48.876;8.962;2023-01-16T14:55:36;5.40;99.90
10472;DHT22;5283;48.876;8.962;2023-01-16T15:00:56;5.10;99.90
10472;DHT22;5283;48.876;8.962;2023-01-16T15:03:44;5.00;99.90
10472;DHT22;5283;48.876;8.962;2023-01-16T15:06:12;4.90;99.90
10472;DHT22;5283;48.876;8.962;2023-01-16T15:08:40;4.90;99.90
10472;DHT22;5283;48.876;8.962;2023-01-16T15:11:28;5.00;99.90
10472;DHT22;5283;48.876;8.962;2023-01-16T15:14:24;5.10;99.90
10472;DHT22;5283;48.876;8.962;2023-01-16T15:20:27;5.00;99.90
10472;DHT22;5283;48.876;8.962;2023-01-16T15:23:18;5.00;99.90
10472;DHT22;5283;48.876;8.962;2023-01-16T15:25:59;5.00;99.90
10472;DHT22;5283;48.876;8.962;2023-01-16T15:31:17;4.90;99.90
10472;DHT22;5283;48.876;8.962;2023-01-16T15:33:45;4.90;99.90
10472;DHT22;5283;48.876;8.962;2023-01-16T15:36:24;4.80;99.90
10472;DHT22;5283;48.876;8.962;2023-01-16T15:38:58;4.70;99.90
10472;DHT22;5283;48.876;8.962;2023-01-16T15:41:27;4.60;99.90
10472;DHT22;5283;48.876;8.962;2023-01-16T15:44:19;4.50;99.90
10472;DHT22;5283;48.876;8.962;2023-01-16T15:52:16;4.30;99.90
10472;DHT22;5283;48.876;8.962;2023-01-16T15:54:43;4.20;99.90
10472;DHT22;5283;48.876;8.962;2023-01-16T15:57:17;4.20;99.90
10472;DHT22;5283;48.876;8.962;2023-01-16T15:59:53;4.20;99.90
10472;DHT22;5283;48.876;8.962;2023-01-16T16:02:27;4.20;99.90
10472;DHT22;5283;48.876;8.962;2023-01-16T16:04:59;4.20;99.90
10472;DHT22;5283;48.876;8.962;2023-01-16T16:07:27;4.20;99.90
10472;DHT22;5283;48.876;8.962;2023-01-16T16:09:58;4.20;99.90
10472;DHT22;5283;48.876;8.962;2023-01-16T16:12:25;4.20;99.90
10472;DHT22;5283;48.876;8.962;2023-01-16T16:15:19;4.10;99.90
10472;DHT22;5283;48.876;8.962;2023-01-16T16:18:15;4.10;99.90
10472;DHT22;5283;48.876;8.962;2023-01-16T16:20:43;4.00;99.90
10472;DHT22;5283;48.876;8.962;2023-01-16T16:25:57;3.90;99.90
10472;DHT22;5283;48.876;8.962;2023-01-16T16:31:15;3.80;99.90
10472;DHT22;5283;48.876;8.962;2023-01-16T16:33:51;3.80;99.90
10472;DHT22;5283;48.876;8.962;2023-01-16T16:36:18;3.80;99.90
10472;DHT22;5283;48.876;8.962;2023-01-16T16:38:46;3.80;99.90
10472;DHT22;5283;48.876;8.962;2023-01-16T16:44:23;3.70;99.90
10472;DHT22;5283;48.876;8.962;2023-01-16T16:46:50;3.70;99.90
10472;DHT22;5283;48.876;8.962;2023-01-16T16:51:51;3.60;99.90
10472;DHT22;5283;48.876;8.962;2023-01-16T16:54:18;3.60;99.90
10472;DHT22;5283;48.876;8.962;2023-01-16T16:56:48;3.50;99.90
10472;DHT22;5283;48.876;8.962;2023-01-16T16:59:26;3.50;99.90
10472;DHT22;5283;48.876;8.962;2023-01-16T17:01:56;3.50;99.90
10472;DHT22;5283;48.876;8.962;2023-01-16T17:04:31;3.50;99.90
10472;DHT22;5283;48.876;8.962;2023-01-16T17:06:58;3.50;99.90
10472;DHT22;5283;48.876;8.962;2023-01-16T17:09:26;3.40;99.90
10472;DHT22;5283;48.876;8.962;2023-01-16T17:11:55;3.50;99.90
10472;DHT22;5283;48.876;8.962;2023-01-16T17:14:21;3.40;99.90
10472;DHT22;5283;48.876;8.962;2023-01-16T17:16:48;3.40;99.90
10472;DHT22;5283;48.876;8.962;2023-01-16T17:19:21;3.40;99.90
10472;DHT22;5283;48.876;8.962;2023-01-16T17:21:49;3.40;99.90
10472;DHT22;5283;48.876;8.962;2023-01-16T17:24:19;3.40;99.90
10472;DHT22;5283;48.876;8.962;2023-01-16T17:26:46;3.50;99.90
10472;DHT22;5283;48.876;8.962;2023-01-16T17:29:13;3.50;99.90
10472;DHT22;5283;48.876;8.962;2023-01-16T17:31:44;3.60;99.90
10472;DHT22;5283;48.876;8.962;2023-01-16T17:34:12;3.60;99.90
10472;DHT22;5283;48.876;8.962;2023-01-16T17:36:40;3.60;99.90
10472;DHT22;5283;48.876;8.962;2023-01-16T17:39:07;3.60;99.90
10472;DHT22;5283;48.876;8.962;2023-01-16T17:41:35;3.60;99.90
10472;DHT22;5283;48.876;8.962;2023-01-16T17:44:24;3.60;99.90
10472;DHT22;5283;48.876;8.962;2023-01-16T17:47:10;3.60;99.90
10472;DHT22;5283;48.876;8.962;2023-01-16T17:49:37;3.60;99.90
10472;DHT22;5283;48.876;8.962;2023-01-16T17:52:23;3.60;99.90
10472;DHT22;5283;48.876;8.962;2023-01-16T17:54:51;3.50;99.90
10472;DHT22;5283;48.876;8.962;2023-01-16T17:57:36;3.50;99.90
10472;DHT22;5283;48.876;8.962;2023-01-16T18:00:04;3.50;99.90
10472;DHT22;5283;48.876;8.962;2023-01-16T18:02:31;3.50;99.90
10472;DHT22;5283;48.876;8.962;2023-01-16T18:04:58;3.50;99.90
10472;DHT22;5283;48.876;8.962;2023-01-16T18:07:24;3.40;99.90
10472;DHT22;5283;48.876;8.962;2023-01-16T18:09:51;3.40;99.90
10472;DHT22;5283;48.876;8.962;2023-01-16T18:12:18;3.40;99.90
10472;DHT22;5283;48.876;8.962;2023-01-16T18:15:03;3.40;99.90
10472;DHT22;5283;48.876;8.962;2023-01-16T18:17:48;3.30;99.90
10472;DHT22;5283;48.876;8.962;2023-01-16T18:20:16;3.40;99.90
10472;DHT22;5283;48.876;8.962;2023-01-16T18:22:43;3.30;99.90
10472;DHT22;5283;48.876;8.962;2023-01-16T18:25:10;3.30;99.90
10472;DHT22;5283;48.876;8.962;2023-01-16T18:27:36;3.30;99.90
10472;DHT22;5283;48.876;8.962;2023-01-16T18:30:04;3.30;99.90
10472;DHT22;5283;48.876;8.962;2023-01-16T18:32:31;3.30;99.90
10472;DHT22;5283;48.876;8.962;2023-01-16T18:35:04;3.30;99.90
10472;DHT22;5283;48.876;8.962;2023-01-16T18:37:37;3.30;99.90
10472;DHT22;5283;48.876;8.962;2023-01-16T18:40:06;3.30;99.90
10472;DHT22;5283;48.876;8.962;2023-01-16T18:42:52;3.30;99.90
10472;DHT22;5283;48.876;8.962;2023-01-16T18:45:38;3.30;99.90
10472;DHT22;5283;48.876;8.962;2023-01-16T18:48:23;3.30;99.90
10472;DHT22;5283;48.876;8.962;2023-01-16T18:51:14;3.30;99.90
10472;DHT22;5283;48.876;8.962;2023-01-16T18:54:01;3.30;99.90
10472;DHT22;5283;48.876;8.962;2023-01-16T18:56:54;3.30;99.90
10472;DHT22;5283;48.876;8.962;2023-01-16T18:59:39;3.30;99.90
10472;DHT22;5283;48.876;8.962;2023-01-16T19:02:48;3.30;99.90
10472;DHT22;5283;48.876;8.962;2023-01-16T19:05:21;3.40;99.90
10472;DHT22;5283;48.876;8.962;2023-01-16T19:07:50;3.30;99.90